Time;durP1;ratioP1;P1;durP2;ratioP2;P2;SDS_P1;SDS_P2;PMS_P1;PMS_P2;Temp;Humidity;BMP_temperature;BMP_pressure;BME280_temperature;BME280_humidity;BME280_pressure;Samples;Min_cycle;Max_cycle;Signal;HPM_P1;HPM_P2
2022/08/16 00:00:24;;;;;;;6.85;4.80;;;;;;;16.11;63.20;95497.00;10323429;28;97697;-61
2022/08/16 00:05:28;;;;;;;5.20;4.60;;;;;;;16.05;62.49;95490.69;10331296;28;97170;-60
2022/08/16 00:10:37;;;;;;;5.25;4.28;;;;;;;16.05;62.83;95493.34;10326610;28;99241;-60
2022/08/16 00:15:46;;;;;;;5.32;4.22;;;;;;;16.11;62.58;95493.56;10315377;28;96826;-60
2022/08/16 00:20:53;;;;;;;8.43;4.50;;;;;;;16.21;61.95;95497.41;10329781;28;96882;-60
2022/08/16 00:25:56;;;;;;;7.03;5.00;;;;;;;16.23;62.65;95507.75;10330687;28;96871;-61
2022/08/16 00:31:20;;;;;;;8.32;5.45;;;;;;;16.10;62.59;95498.00;10324228;28;96871;-60
2022/08/16 00:36:26;;;;;;;4.78;4.35;;;;;;;16.02;63.29;95485.81;10320655;28;97935;-60
2022/08/16 00:41:31;;;;;;;6.78;5.18;;;;;;;15.87;63.48;95493.88;10320028;28;98799;-60
2022/08/16 00:46:45;;;;;;;6.50;5.28;;;;;;;15.81;64.91;95493.91;10316552;28;97706;-60
2022/08/16 00:52:08;;;;;;;6.90;5.32;;;;;;;15.72;64.74;95480.09;10319973;28;96946;-60
2022/08/16 00:57:31;;;;;;;9.10;5.30;;;;;;;15.64;64.09;95480.28;10331076;28;97934;-60
2022/08/16 01:02:58;;;;;;;6.80;5.63;;;;;;;15.54;64.69;95482.44;10326398;28;97073;-60
2022/08/16 01:08:02;;;;;;;7.20;5.55;;;;;;;15.32;66.42;95483.38;10324477;28;97635;-60
2022/08/16 01:13:29;;;;;;;7.47;5.82;;;;;;;15.31;65.70;95480.91;10322500;28;97090;-60
2022/08/16 01:18:37;;;;;;;5.82;5.22;;;;;;;15.34;65.97;95472.66;10322394;28;97839;-62
2022/08/16 01:24:00;;;;;;;6.88;4.63;;;;;;;15.43;65.98;95474.09;10312958;28;97301;-60
2022/08/16 01:29:09;;;;;;;7.07;5.07;;;;;;;15.40;64.92;95465.78;10324749;28;98847;-59
2022/08/16 01:34:14;;;;;;;5.68;4.85;;;;;;;15.39;65.32;95472.88;10325244;28;98044;-60
2022/08/16 01:39:30;;;;;;;6.95;5.40;;;;;;;15.27;65.92;95463.91;10329190;28;97669;-60
2022/08/16 01:44:38;;;;;;;6.72;5.80;;;;;;;15.11;66.12;95467.66;10321369;28;98337;-60
2022/08/16 01:49:43;;;;;;;5.90;5.30;;;;;;;14.95;66.53;95460.91;10321993;28;96891;-60
2022/08/16 01:55:08;;;;;;;6.63;5.00;;;;;;;14.94;66.91;95459.31;10324352;28;97474;-60
2022/08/16 02:00:15;;;;;;;9.75;5.35;;;;;;;15.02;66.33;95459.13;10323643;28;97402;-60
2022/08/16 02:05:21;;;;;;;7.25;5.10;;;;;;;15.03;66.96;95458.13;10319430;28;97002;-60
2022/08/16 02:10:27;;;;;;;8.23;5.27;;;;;;;14.99;67.01;95449.00;10326539;28;97727;-60
2022/08/16 02:15:33;;;;;;;6.40;4.65;;;;;;;14.97;66.76;95456.25;10319575;28;97902;-60
2022/08/16 02:20:38;;;;;;;6.72;5.25;;;;;;;14.92;66.91;95458.66;10327712;28;97050;-60
2022/08/16 02:25:48;;;;;;;6.65;5.35;;;;;;;14.90;66.92;95460.69;10330630;28;98758;-60
2022/08/16 02:30:58;;;;;;;6.15;5.25;;;;;;;14.93;67.18;95455.03;10329014;28;97800;-60
2022/08/16 02:36:01;;;;;;;6.45;5.47;;;;;;;14.87;66.97;95461.06;10321263;28;98890;-60
2022/08/16 02:41:09;;;;;;;6.80;5.30;;;;;;;14.74;67.79;95462.59;10322294;28;98730;-61
2022/08/16 02:46:14;;;;;;;6.30;4.60;;;;;;;14.62;67.76;95460.72;10335205;28;97397;-60
2022/08/16 02:51:17;;;;;;;5.97;5.35;;;;;;;14.57;68.20;95474.41;10328701;28;97965;-60
2022/08/16 02:56:28;;;;;;;8.85;5.93;;;;;;;14.36;68.53;95476.06;10332696;28;97620;-60
2022/08/16 03:01:35;;;;;;;6.30;5.70;;;;;;;14.09;69.84;95477.66;10336082;28;99621;-60
2022/08/16 03:06:38;;;;;;;;;;;;;;;13.97;68.90;95477.34;10333017;28;98971;-60
2022/08/16 03:11:46;;;;;;;7.82;6.30;;;;;;;13.93;70.65;95483.97;10339491;28;96800;-60
2022/08/16 03:16:49;;;;;;;7.67;6.40;;;;;;;13.93;70.40;95485.75;10340226;28;97010;-60
2022/08/16 03:22:02;;;;;;;6.90;5.53;;;;;;;13.97;69.79;95472.09;10324750;28;97671;-60
2022/08/16 03:27:07;;;;;;;6.53;5.93;;;;;;;13.96;70.27;95473.06;10332150;28;97722;-60
2022/08/16 03:32:11;;;;;;;7.85;6.55;;;;;;;14.01;70.85;95475.16;10328155;28;96946;-60
2022/08/16 03:37:15;;;;;;;7.90;5.93;;;;;;;14.05;70.16;95459.81;10321815;28;97081;-60
2022/08/16 03:42:19;;;;;;;7.72;5.90;;;;;;;14.11;69.78;95467.75;10328675;28;96907;-60
2022/08/16 03:47:26;;;;;;;7.43;6.30;;;;;;;13.88;71.08;95454.84;10335536;28;98648;-60
2022/08/16 03:52:36;;;;;;;6.63;5.70;;;;;;;13.85;70.89;95455.19;10334561;28;97426;-60
2022/08/16 03:57:48;;;;;;;6.68;5.90;;;;;;;13.84;70.40;95447.50;10332077;28;96914;-60
2022/08/16 04:02:55;;;;;;;9.07;7.10;;;;;;;13.96;70.14;95443.38;10341242;28;96962;-60
2022/08/16 04:07:58;;;;;;;5.70;5.10;;;;;;;13.97;69.17;95445.81;10331323;28;99176;-60
2022/08/16 04:13:02;;;;;;;6.93;5.72;;;;;;;13.88;68.96;95451.38;10328495;28;97568;-60
2022/08/16 04:18:08;;;;;;;7.65;6.00;;;;;;;13.90;69.59;95455.47;10328243;28;96926;-60
2022/08/16 04:23:11;;;;;;;8.32;5.95;;;;;;;13.91;69.85;95451.00;10341468;28;96841;-61
2022/08/16 04:28:16;;;;;;;7.93;6.97;;;;;;;13.80;70.38;95465.44;10330427;28;97577;-60
2022/08/16 04:33:39;;;;;;;8.90;6.78;;;;;;;13.56;71.35;95456.91;10327555;28;97265;-60
2022/08/16 04:38:54;;;;;;;9.52;7.20;;;;;;;13.28;72.45;95462.06;10332068;28;97141;-60
2022/08/16 04:43:58;;;;;;;10.13;7.80;;;;;;;13.23;72.94;95467.03;10327257;28;97440;-60
2022/08/16 04:49:01;;;;;;;7.47;6.20;;;;;;;13.28;72.65;95463.88;10340905;28;98563;-59
2022/08/16 04:54:04;;;;;;;7.53;6.47;;;;;;;13.47;72.28;95478.22;10332368;28;98826;-60
2022/08/16 04:59:10;;;;;;;7.77;5.50;;;;;;;13.52;71.72;95479.28;10321782;28;98016;-60
2022/08/16 05:04:13;;;;;;;5.80;5.18;;;;;;;13.57;71.00;95484.78;10319770;28;97790;-60
2022/08/16 05:09:21;;;;;;;8.45;7.07;;;;;;;13.54;71.33;95487.78;10327124;28;96953;-60
2022/08/16 05:14:26;;;;;;;8.60;6.50;;;;;;;13.45;72.34;95488.91;10328737;28;97581;-60
2022/08/16 05:19:48;;;;;;;6.55;5.95;;;;;;;13.49;72.48;95486.72;10323835;28;96914;-60
2022/08/16 05:25:00;;;;;;;6.68;5.63;;;;;;;13.69;72.46;95484.31;10332137;28;97570;-60
2022/08/16 05:30:13;;;;;;;6.63;5.93;;;;;;;13.81;71.57;95482.81;10333349;28;96998;-62
2022/08/16 05:35:36;;;;;;;6.35;5.30;;;;;;;14.04;71.12;95485.28;10330998;28;96803;-60
2022/08/16 05:40:40;;;;;;;6.70;5.97;;;;;;;14.25;70.61;95476.56;10330871;28;96941;-60
2022/08/16 05:46:00;;;;;;;10.13;5.72;;;;;;;14.37;69.62;95477.72;10345510;28;97707;-60
2022/08/16 05:51:03;;;;;;;7.43;5.60;;;;;;;14.55;69.72;95487.75;10344367;28;96782;-60
2022/08/16 05:56:09;;;;;;;5.65;5.05;;;;;;;14.68;68.95;95484.41;10337929;28;96823;-60
2022/08/16 06:01:22;;;;;;;7.45;5.45;;;;;;;14.87;68.95;95490.81;10343817;28;99178;-60
2022/08/16 06:06:25;;;;;;;;;;;;;;;15.06;68.24;95485.84;10347022;28;98676;-59
2022/08/16 06:11:30;;;;;;;5.73;5.13;;;;;;;15.18;68.56;95499.28;10336249;28;98540;-60
2022/08/16 06:16:35;;;;;;;6.53;4.80;;;;;;;15.32;67.45;95490.44;10341720;28;97015;-60
2022/08/16 06:21:38;;;;;;;10.13;5.90;;;;;;;15.52;68.30;95495.78;10344345;28;97040;-60
2022/08/16 06:26:42;;;;;;;6.10;5.45;;;;;;;15.70;66.79;95495.25;10336088;28;96961;-59
2022/08/16 06:32:01;;;;;;;6.75;5.25;;;;;;;15.75;67.10;95484.16;10333476;28;96802;-59
2022/08/16 06:37:06;;;;;;;5.45;4.95;;;;;;;16.05;66.87;95495.97;10337009;28;96744;-59
2022/08/16 06:42:09;;;;;;;7.45;5.30;;;;;;;16.19;66.75;95494.16;10336794;28;96783;-59
2022/08/16 06:47:14;;;;;;;5.80;5.20;;;;;;;16.34;66.63;95503.69;10335738;28;96890;-59
2022/08/16 06:52:19;;;;;;;6.93;5.13;;;;;;;16.50;66.01;95507.75;10334958;28;97109;-59
2022/08/16 06:57:42;;;;;;;5.70;5.15;;;;;;;16.58;65.70;95516.28;10331138;28;97032;-59
2022/08/16 07:02:47;;;;;;;8.93;5.80;;;;;;;16.72;65.66;95517.09;10336222;28;96838;-59
2022/08/16 07:07:53;;;;;;;7.30;4.97;;;;;;;16.88;64.87;95515.88;10335819;28;96760;-59
2022/08/16 07:12:56;;;;;;;5.97;4.63;;;;;;;16.98;64.82;95518.91;10335384;28;97085;-59
2022/08/16 07:18:11;;;;;;;6.35;5.10;;;;;;;17.12;64.49;95532.09;10335325;28;96791;-59
2022/08/16 07:23:14;;;;;;;6.73;4.97;;;;;;;17.26;64.31;95522.31;10335069;28;96806;-59
2022/08/16 07:28:18;;;;;;;5.53;4.38;;;;;;;17.45;64.23;95515.38;10335182;28;96927;-60
2022/08/16 07:33:27;;;;;;;6.60;4.68;;;;;;;17.60;63.75;95512.47;10334879;28;96769;-59
2022/08/16 07:38:51;;;;;;;5.37;4.77;;;;;;;17.74;63.45;95520.13;10334722;28;96960;-59
2022/08/16 07:43:54;;;;;;;5.80;5.10;;;;;;;17.88;62.70;95520.09;10333456;28;96732;-59
2022/08/16 07:48:58;;;;;;;6.13;4.70;;;;;;;18.05;62.96;95523.88;10333966;28;96799;-59
2022/08/16 07:54:07;;;;;;;7.20;4.90;;;;;;;18.24;62.51;95526.63;10334334;28;98639;-59
2022/08/16 07:59:13;;;;;;;6.07;4.85;;;;;;;18.31;61.27;95535.31;10333320;28;96802;-59
2022/08/16 08:04:18;;;;;;;6.95;5.20;;;;;;;18.24;62.53;95535.34;10333724;28;96878;-60
2022/08/16 08:09:20;;;;;;;6.43;4.70;;;;;;;18.37;61.19;95545.00;10332510;28;96800;-60
2022/08/16 08:14:23;;;;;;;5.35;4.78;;;;;;;18.53;60.54;95537.59;10333325;28;97037;-60
2022/08/16 08:19:32;;;;;;;5.97;4.32;;;;;;;18.69;59.78;95531.78;10333888;28;97648;-59
2022/08/16 08:24:37;;;;;;;;;;;;;;;18.90;60.03;95537.72;10332817;28;97210;-59
2022/08/16 08:29:45;;;;;;;6.75;5.00;;;;;;;19.05;59.56;95543.50;10332791;28;96762;-59
2022/08/16 08:35:10;;;;;;;5.22;4.47;;;;;;;19.20;58.50;95536.03;10328548;28;96773;-59
2022/08/16 08:40:14;;;;;;;6.35;4.90;;;;;;;19.38;58.38;95539.72;10332285;28;96962;-59
2022/08/16 08:45:20;;;;;;;6.22;4.45;;;;;;;19.60;57.92;95527.66;10331827;28;96834;-60
2022/08/16 08:50:44;;;;;;;5.22;4.70;;;;;;;19.71;56.92;95526.09;10333017;28;96790;-59
2022/08/16 08:55:51;;;;;;;6.35;4.40;;;;;;;19.92;56.79;95527.50;10331826;28;96891;-60
2022/08/16 09:01:01;;;;;;;5.40;4.60;;;;;;;19.97;55.87;95532.94;10327322;28;99492;-59
2022/08/16 09:06:08;;;;;;;5.43;4.25;;;;;;;20.21;56.00;95532.22;10331817;28;97316;-60
2022/08/16 09:11:11;;;;;;;6.10;4.05;;;;;;;20.35;55.29;95531.78;10332247;28;97296;-59
2022/08/16 09:16:20;;;;;;;7.28;4.35;;;;;;;20.40;54.98;95527.66;10331494;28;96919;-62
2022/08/16 09:21:45;;;;;;;6.55;4.43;;;;;;;20.53;55.56;95528.28;10330813;28;96767;-59
2022/08/16 09:26:58;;;;;;;6.47;4.47;;;;;;;20.67;54.60;95531.53;10329096;28;97011;-60
2022/08/16 09:32:01;;;;;;;6.45;4.00;;;;;;;20.89;53.63;95531.00;10331245;28;96735;-59
2022/08/16 09:37:13;;;;;;;4.18;3.78;;;;;;;20.98;53.32;95532.28;10330617;28;97210;-60
2022/08/16 09:42:21;;;;;;;5.00;3.80;;;;;;;21.10;53.21;95530.44;10331369;28;97631;-60
2022/08/16 09:47:24;;;;;;;5.65;3.80;;;;;;;21.22;52.51;95526.97;10330744;28;97393;-60
2022/08/16 09:52:29;;;;;;;6.73;4.00;;;;;;;21.40;52.18;95524.19;10330828;28;96628;-60
2022/08/16 09:57:32;;;;;;;4.00;3.35;;;;;;;21.55;51.48;95521.03;10329993;28;98777;-60
2022/08/16 10:02:36;;;;;;;4.70;4.15;;;;;;;21.68;51.41;95514.69;10331302;28;97378;-60
2022/08/16 10:07:52;;;;;;;4.60;4.00;;;;;;;21.79;51.06;95521.81;10326249;28;96892;-59
2022/08/16 10:13:14;;;;;;;5.10;3.90;;;;;;;22.06;50.52;95523.94;10330497;28;99039;-60
2022/08/16 10:18:19;;;;;;;6.70;3.88;;;;;;;22.22;49.77;95517.03;10327253;28;97195;-60
2022/08/16 10:23:44;;;;;;;5.03;3.60;;;;;;;22.31;49.10;95512.91;10324726;28;96857;-61
2022/08/16 10:28:47;;;;;;;4.97;3.83;;;;;;;22.43;48.70;95516.31;10316501;28;96717;-60
2022/08/16 10:33:52;;;;;;;4.55;3.22;;;;;;;22.60;48.30;95512.91;10335268;28;97741;-61
2022/08/16 10:38:57;;;;;;;6.28;3.75;;;;;;;22.74;47.66;95508.09;10332671;28;97039;-60
2022/08/16 10:44:00;;;;;;;4.43;3.63;;;;;;;22.76;47.46;95503.31;10329722;28;98983;-60
2022/08/16 10:49:02;;;;;;;5.32;3.47;;;;;;;22.91;46.66;95500.88;10335375;28;97687;-60
2022/08/16 10:54:08;;;;;;;6.55;3.67;;;;;;;23.05;45.88;95495.19;10342868;28;98900;-62
2022/08/16 10:59:32;;;;;;;5.30;3.65;;;;;;;23.20;45.41;95482.09;10343499;28;96917;-60
2022/08/16 11:04:54;;;;;;;8.18;3.83;;;;;;;23.28;46.80;95494.25;10335450;28;97274;-60
2022/08/16 11:10:17;;;;;;;5.22;3.58;;;;;;;23.28;45.98;95479.06;10334358;28;97011;-60
2022/08/16 11:15:42;;;;;;;6.07;3.65;;;;;;;23.41;45.58;95469.06;10334956;28;97067;-59
2022/08/16 11:20:58;;;;;;;5.50;3.97;;;;;;;23.59;44.50;95463.44;10326298;28;96871;-59
2022/08/16 11:26:02;;;;;;;4.75;3.22;;;;;;;23.73;43.52;95479.88;10334210;28;96868;-60
2022/08/16 11:31:25;;;;;;;5.35;3.10;;;;;;;23.94;43.16;95465.69;10335425;28;97141;-59
2022/08/16 11:36:28;;;;;;;3.88;3.28;;;;;;;24.25;42.20;95475.91;10334286;28;97008;-59
2022/08/16 11:41:37;;;;;;;4.15;3.40;;;;;;;24.37;42.96;95463.19;10333553;28;96797;-59
2022/08/16 11:46:45;;;;;;;7.10;3.37;;;;;;;24.45;41.88;95460.06;10334600;28;97609;-59
2022/08/16 11:51:48;;;;;;;3.73;3.33;;;;;;;24.48;41.70;95458.75;10324325;28;96818;-60
2022/08/16 11:56:53;;;;;;;3.83;3.10;;;;;;;24.78;41.24;95452.84;10333614;28;97308;-60
2022/08/16 12:01:59;;;;;;;5.22;3.25;;;;;;;25.03;40.43;95444.19;10332741;28;97090;-59
2022/08/16 12:07:22;;;;;;;4.43;3.40;;;;;;;25.09;40.50;95437.00;10333254;28;96742;-60
2022/08/16 12:12:27;;;;;;;3.92;3.13;;;;;;;25.30;40.37;95434.44;10333495;28;96812;-59
2022/08/16 12:17:31;;;;;;;5.28;3.58;;;;;;;25.43;38.77;95436.66;10332918;28;96830;-59
2022/08/16 12:22:35;;;;;;;3.88;2.92;;;;;;;25.55;38.64;95431.91;10333248;28;96822;-60
2022/08/16 12:27:40;;;;;;;3.70;2.90;;;;;;;25.75;38.80;95414.31;10332787;28;97655;-60
2022/08/16 12:32:43;;;;;;;4.53;2.92;;;;;;;26.02;38.03;95416.78;10333157;28;97180;-59
2022/08/16 12:37:55;;;;;;;5.28;3.00;;;;;;;26.29;37.83;95418.41;10333077;28;96785;-60
2022/08/16 12:43:03;;;;;;;4.68;2.97;;;;;;;26.52;36.79;95406.38;10332352;28;97207;-60
2022/08/16 12:53:37;;;;;;;4.18;3.20;;;;;;;26.75;35.92;95403.13;10321267;28;97226;-59
2022/08/16 12:58:44;;;;;;;4.85;3.10;;;;;;;26.98;35.31;95409.00;10331612;28;96919;-59
2022/08/16 13:03:54;;;;;;;4.50;3.10;;;;;;;27.26;35.42;95396.84;10331971;28;96675;-59
2022/08/16 13:09:22;;;;;;;4.53;3.08;;;;;;;27.44;34.65;95392.75;10331699;28;96832;-60
2022/08/16 13:14:33;;;;;;;4.95;3.20;;;;;;;27.62;34.57;95379.81;10331866;28;96877;-60
2022/08/16 13:19:36;;;;;;;4.25;3.00;;;;;;;27.73;33.99;95372.50;10326117;28;97251;-59
2022/08/16 13:24:59;;;;;;;5.43;3.07;;;;;;;27.88;33.59;95369.72;10330476;28;97068;-60
2022/08/16 13:30:04;;;;;;;4.23;2.87;;;;;;;28.07;33.54;95356.44;10332060;28;97347;-61
2022/08/16 13:35:27;;;;;;;5.20;3.20;;;;;;;28.29;33.21;95363.28;10331131;28;96930;-60
2022/08/16 13:40:36;;;;;;;4.82;2.85;;;;;;;28.47;33.11;95348.34;10330572;28;97008;-59
2022/08/16 13:45:41;;;;;;;4.47;3.40;;;;;;;28.73;32.62;95347.00;10329325;28;96939;-60
2022/08/16 13:50:46;;;;;;;4.50;2.95;;;;;;;28.87;32.08;95335.59;10330580;28;97329;-61
2022/08/16 13:55:54;;;;;;;3.80;2.70;;;;;;;29.02;32.13;95327.38;10329548;28;96873;-60
2022/08/16 14:01:02;;;;;;;4.05;2.88;;;;;;;29.18;31.18;95325.28;10325810;28;96956;-60
2022/08/16 14:06:12;;;;;;;4.40;2.80;;;;;;;29.30;31.28;95314.91;10332840;28;97013;-60
2022/08/16 14:11:16;;;;;;;3.95;2.95;;;;;;;29.56;30.28;95319.97;10337122;28;96821;-59
2022/08/16 14:16:20;;;;;;;4.53;3.00;;;;;;;29.67;30.39;95321.41;10337704;28;97559;-59
2022/08/16 14:21:36;;;;;;;4.18;3.17;;;;;;;30.16;30.36;95313.16;10337558;28;96906;-59
2022/08/16 14:26:39;;;;;;;3.22;2.47;;;;;;;31.03;28.50;95311.56;10336001;28;96964;-60
2022/08/16 14:31:46;;;;;;;3.67;2.40;;;;;;;32.30;26.88;95304.44;10333620;28;96789;-60
2022/08/16 14:36:55;;;;;;;3.50;2.70;;;;;;;33.50;26.64;95300.09;10335494;28;96918;-60
2022/08/16 14:42:04;;;;;;;3.78;2.90;;;;;;;34.54;25.58;95297.31;10336100;28;96872;-61
2022/08/16 14:47:08;;;;;;;3.25;2.47;;;;;;;35.35;24.91;95299.38;10336386;28;96900;-60
2022/08/16 14:52:16;;;;;;;3.40;2.35;;;;;;;36.17;22.99;95296.16;10336179;28;97013;-60
2022/08/16 14:57:39;;;;;;;2.78;2.50;;;;;;;36.55;22.43;95287.00;10335284;28;96795;-60
2022/08/16 15:02:44;;;;;;;4.00;2.65;;;;;;;36.66;22.14;95290.88;10335521;28;96833;-60
2022/08/16 15:07:48;;;;;;;4.50;2.58;;;;;;;36.81;22.07;95282.06;10335443;28;96763;-60
2022/08/16 15:12:54;;;;;;;3.42;2.30;;;;;;;37.16;22.26;95270.72;10335912;28;96819;-61
2022/08/16 15:18:01;;;;;;;3.40;2.10;;;;;;;37.79;20.80;95263.19;10335400;28;96887;-61
2022/08/16 15:23:07;;;;;;;4.55;2.38;;;;;;;38.04;21.22;95270.13;10334526;28;97219;-61
2022/08/16 15:28:13;;;;;;;3.15;2.40;;;;;;;38.27;21.05;95261.41;10333087;28;96834;-60
2022/08/16 15:33:38;;;;;;;3.42;2.35;;;;;;;38.57;20.22;95250.06;10332740;28;96786;-61
2022/08/16 15:38:49;;;;;;;4.38;2.10;;;;;;;38.66;19.75;95248.78;10334152;28;97283;-61
2022/08/16 15:44:00;;;;;;;2.67;2.15;;;;;;;38.33;20.10;95251.03;10333889;28;96856;-61
2022/08/16 15:49:14;;;;;;;3.22;2.35;;;;;;;39.00;19.51;95238.28;10333956;28;97139;-60
2022/08/16 15:54:18;;;;;;;3.03;2.00;;;;;;;39.80;19.28;95236.09;10333683;28;97256;-61
2022/08/16 15:59:32;;;;;;;4.00;2.20;;;;;;;40.45;18.16;95241.97;10333183;28;97004;-61
2022/08/16 16:04:52;;;;;;;3.97;2.28;;;;;;;40.68;18.84;95239.25;10334026;28;98531;-60
2022/08/16 16:09:55;;;;;;;2.60;2.25;;;;;;;40.86;18.02;95229.38;10333887;28;97125;-60
2022/08/16 16:15:00;;;;;;;2.92;2.45;;;;;;;40.94;18.00;95232.25;10332786;28;97032;-60
2022/08/16 16:20:05;;;;;;;4.45;2.50;;;;;;;40.80;18.38;95227.31;10331870;28;98407;-62
2022/08/16 16:25:17;;;;;;;3.10;2.20;;;;;;;40.76;17.71;95230.00;10332273;28;98609;-60
2022/08/16 16:30:21;;;;;;;2.67;2.20;;;;;;;41.03;17.94;95216.31;10332446;28;98798;-61
2022/08/16 16:35:46;;;;;;;2.75;2.30;;;;;;;40.83;17.67;95216.41;10330713;28;98559;-61
2022/08/16 16:40:58;;;;;;;2.85;2.55;;;;;;;40.94;18.10;95219.34;10329323;28;96927;-61
2022/08/16 16:46:01;;;;;;;5.28;2.53;;;;;;;41.25;17.33;95209.19;10335120;28;97948;-62
2022/08/16 16:51:10;;;;;;;2.83;2.30;;;;;;;41.19;17.55;95203.25;10326008;28;96875;-60
2022/08/16 16:56:13;;;;;;;3.10;2.13;;;;;;;41.03;17.33;95197.16;10322304;28;97942;-60
2022/08/16 17:01:22;;;;;;;2.67;2.28;;;;;;;39.63;18.95;95198.28;10322633;28;96868;-61
2022/08/16 17:06:38;;;;;;;2.95;2.45;;;;;;;37.04;19.92;95197.22;10329635;28;96960;-60
2022/08/16 17:11:46;;;;;;;3.03;2.50;;;;;;;35.35;21.25;95188.06;10328554;28;96876;-61
2022/08/16 17:16:57;;;;;;;3.95;2.83;;;;;;;34.24;21.99;95201.56;10328837;28;98643;-60
2022/08/16 17:22:02;;;;;;;3.05;2.40;;;;;;;33.45;23.15;95196.25;10329802;28;98594;-60
2022/08/16 17:27:07;;;;;;;4.00;3.00;;;;;;;32.75;24.32;95197.28;10331103;28;96895;-60
2022/08/16 17:32:11;;;;;;;3.45;2.72;;;;;;;32.59;25.32;95202.34;10330619;28;98319;-60
2022/08/16 17:37:35;;;;;;;5.63;3.10;;;;;;;32.41;26.00;95207.66;10327263;28;97308;-60
2022/08/16 17:42:55;;;;;;;3.50;2.85;;;;;;;32.09;26.23;95196.09;10330527;28;97267;-60
2022/08/16 17:47:58;;;;;;;4.03;2.90;;;;;;;31.51;27.10;95197.78;10336652;28;96819;-59
2022/08/16 17:53:05;;;;;;;3.53;2.60;;;;;;;31.07;27.91;95204.69;10338623;28;97085;-61
2022/08/16 17:58:10;;;;;;;15.90;14.23;;;;;;;30.61;28.33;95208.31;10334917;28;98447;-62
2022/08/16 18:03:29;;;;;;;3.75;2.97;;;;;;;30.30;28.80;95211.59;10334161;28;97324;-60
2022/08/16 18:08:53;;;;;;;3.88;2.78;;;;;;;29.87;29.46;95217.19;10327131;28;97261;-62
2022/08/16 18:14:05;;;;;;;5.28;3.42;;;;;;;29.51;30.12;95213.19;10336545;28;97139;-60
2022/08/16 18:19:08;;;;;;;3.38;2.80;;;;;;;29.22;30.66;95224.09;10334435;28;96798;-60
2022/08/16 18:24:14;;;;;;;3.22;2.80;;;;;;;28.95;30.85;95217.50;10334867;28;97888;-60
2022/08/16 18:29:19;;;;;;;3.83;3.10;;;;;;;28.71;31.60;95230.16;10336745;28;98891;-60
2022/08/16 18:34:22;;;;;;;4.38;2.97;;;;;;;28.46;31.96;95234.72;10336923;28;97036;-60
2022/08/16 18:39:26;;;;;;;3.33;3.00;;;;;;;28.36;32.65;95250.94;10335616;28;98447;-60
2022/08/16 18:44:29;;;;;;;5.90;3.47;;;;;;;28.20;32.71;95253.78;10338673;28;97104;-60
2022/08/16 18:49:37;;;;;;;7.53;5.43;;;;;;;27.96;32.90;95250.22;10333979;28;97109;-60
2022/08/16 18:54:41;;;;;;;12.30;4.20;;;;;;;27.99;33.55;95263.88;10334321;28;96792;-62
2022/08/16 19:00:06;;;;;;;4.15;3.72;;;;;;;27.93;33.58;95267.69;10329761;28;99002;-60
2022/08/16 19:05:11;;;;;;;5.15;3.92;;;;;;;27.78;33.96;95257.09;10331399;28;97176;-60
2022/08/16 19:10:16;;;;;;;6.38;3.90;;;;;;;27.55;34.14;95258.59;10332284;28;96822;-61
2022/08/16 19:15:22;;;;;;;4.43;4.03;;;;;;;27.45;34.87;95276.34;10327932;28;97167;-61
2022/08/16 19:20:27;;;;;;;4.72;3.95;;;;;;;27.22;35.68;95263.63;10335684;28;97193;-60
2022/08/16 19:25:33;;;;;;;5.55;3.55;;;;;;;26.88;36.62;95266.97;10333601;28;98787;-60
2022/08/16 19:30:51;;;;;;;4.97;3.92;;;;;;;26.64;37.20;95282.84;10334679;28;96822;-59
2022/08/16 19:35:54;;;;;;;7.03;4.20;;;;;;;26.35;37.23;95296.88;10330433;28;98863;-60
2022/08/16 19:40:58;;;;;;;9.75;3.95;;;;;;;26.23;37.49;95289.09;10328475;28;98413;-60
2022/08/16 19:46:01;;;;;;;5.30;4.15;;;;;;;26.02;38.61;95298.22;10327140;28;97328;-60
2022/08/16 19:51:04;;;;;;;8.63;4.15;;;;;;;25.85;39.07;95293.94;10334197;28;96941;-60
2022/08/16 20:02:18;;;;;;;8.40;4.55;;;;;;;25.56;40.15;95310.47;10327090;28;98004;-60
2022/08/16 20:07:37;;;;;;;5.55;3.70;;;;;;;25.35;39.96;95322.19;10326967;28;96881;-61
2022/08/16 20:12:42;;;;;;;5.57;3.75;;;;;;;25.01;41.11;95334.09;10329027;28;97828;-60
2022/08/16 20:18:05;;;;;;;3.92;3.45;;;;;;;25.02;40.20;95332.22;10329230;28;96748;-60
2022/08/16 20:23:26;;;;;;;6.90;3.80;;;;;;;25.30;39.24;95327.50;10330785;28;96952;-61
2022/08/16 20:28:29;;;;;;;5.47;4.03;;;;;;;25.42;39.79;95360.97;10326448;28;97589;-60
2022/08/16 20:33:54;;;;;;;6.63;3.47;;;;;;;25.47;39.53;95378.91;10325008;28;97306;-59
2022/08/16 20:38:58;;;;;;;7.70;3.92;;;;;;;25.50;39.29;95389.06;10327104;28;98515;-60
2022/08/16 20:44:01;;;;;;;5.35;4.35;;;;;;;25.45;40.19;95397.06;10329485;28;96772;-60
2022/08/16 20:49:05;;;;;;;7.25;4.68;;;;;;;25.39;40.37;95419.50;10325054;28;98940;-60
2022/08/16 20:54:10;;;;;;;6.05;4.28;;;;;;;25.35;40.47;95397.84;10325638;28;98449;-62
2022/08/16 20:59:16;;;;;;;6.80;4.60;;;;;;;25.35;40.96;95397.84;10323175;28;98210;-61
2022/08/16 21:04:24;;;;;;;5.95;4.10;;;;;;;25.28;40.99;95385.78;10324854;28;97398;-61
2022/08/16 21:09:30;;;;;;;5.43;4.65;;;;;;;25.11;41.88;95391.31;10324467;28;98409;-60
2022/08/16 21:14:33;;;;;;;6.72;4.35;;;;;;;25.19;42.51;95455.78;10326145;28;96765;-61
2022/08/16 21:19:38;;;;;;;10.33;5.93;;;;;;;23.87;50.12;95456.28;10324747;28;97911;-60
2022/08/16 21:24:41;;;;;;;11.77;7.20;;;;;;;22.21;57.47;95455.03;10325333;28;98051;-59
2022/08/16 21:29:47;;;;;;;13.25;7.60;;;;;;;21.43;62.08;95444.00;10324235;28;98339;-59
2022/08/16 21:34:52;;;;;;;9.98;6.90;;;;;;;21.13;62.94;95444.97;10327142;28;96847;-60
2022/08/16 21:39:54;;;;;;;12.65;8.02;;;;;;;21.03;64.29;95434.16;10324755;28;97015;-60
2022/08/16 21:44:57;;;;;;;7.35;5.85;;;;;;;21.08;62.01;95452.84;10339401;28;97185;-60
2022/08/16 21:50:01;;;;;;;7.97;5.85;;;;;;;21.16;61.83;95448.22;10321238;28;97233;-60
2022/08/16 21:55:06;;;;;;;9.60;6.93;;;;;;;21.22;63.21;95452.59;10328036;28;96940;-63
2022/08/16 22:00:13;;;;;;;8.50;6.95;;;;;;;21.29;64.30;95458.56;10327672;28;97077;-60
2022/08/16 22:05:17;;;;;;;12.65;9.70;;;;;;;21.26;64.74;95464.38;10323996;28;97929;-60
2022/08/16 22:10:21;;;;;;;8.77;6.25;;;;;;;21.25;64.81;95458.25;10323214;28;96813;-60
2022/08/16 22:15:44;;;;;;;10.65;6.78;;;;;;;21.19;66.14;95453.88;10317681;28;96893;-59
2022/08/16 22:20:50;;;;;;;12.47;7.10;;;;;;;21.17;67.04;95463.09;10322901;28;97275;-62
2022/08/16 22:25:55;;;;;;;7.45;6.55;;;;;;;21.11;65.88;95457.69;10324901;28;97037;-60
2022/08/16 22:30:57;;;;;;;6.63;5.90;;;;;;;21.11;65.01;95452.38;10330581;28;99157;-59
2022/08/16 22:36:04;;;;;;;6.13;5.25;;;;;;;21.19;62.97;95461.84;10336514;28;96889;-60
2022/08/16 22:41:07;;;;;;;7.88;5.25;;;;;;;21.35;61.05;95457.66;10329470;28;97069;-60
2022/08/16 22:46:09;;;;;;;5.28;4.20;;;;;;;21.57;59.78;95465.81;10318336;28;96935;-60
2022/08/16 22:51:14;;;;;;;6.35;5.38;;;;;;;21.69;61.94;95473.75;10323895;28;97051;-59
2022/08/16 22:56:17;;;;;;;7.32;4.97;;;;;;;21.68;61.48;95475.63;10332627;28;97043;-59
2022/08/16 23:01:22;;;;;;;6.07;4.50;;;;;;;21.63;60.38;95480.03;10328985;28;97034;-59
2022/08/16 23:06:26;;;;;;;6.72;5.65;;;;;;;21.56;60.26;95500.59;10333356;28;96940;-59
2022/08/16 23:11:29;;;;;;;9.05;5.20;;;;;;;21.48;60.92;95513.19;10324888;28;96910;-59
2022/08/16 23:16:33;;;;;;;7.03;5.55;;;;;;;21.54;60.48;95514.09;10337281;28;97127;-60
2022/08/16 23:21:39;;;;;;;;;;;;;;;21.41;59.84;95509.03;10318436;28;96999;-59
2022/08/16 23:26:43;;;;;;;7.63;4.57;;;;;;;21.40;60.39;95488.84;10325431;28;97194;-59
2022/08/16 23:31:50;;;;;;;5.40;4.25;;;;;;;21.47;59.33;95481.53;10330113;28;96773;-60
2022/08/16 23:36:56;;;;;;;7.03;4.93;;;;;;;21.50;58.77;95492.50;10330108;28;96866;-59
2022/08/16 23:41:59;;;;;;;;;;;;;;;21.61;58.25;95485.53;10325180;28;97198;-59
2022/08/16 23:47:02;;;;;;;6.30;5.38;;;;;;;21.59;60.39;95487.63;10318729;28;96832;-60
2022/08/16 23:52:08;;;;;;;6.47;5.63;;;;;;;21.63;62.11;95496.78;10324477;28;96786;-59
2022/08/16 23:57:11;;;;;;;7.22;5.20;;;;;;;21.55;62.23;95494.44;10333795;28;96805;-60
